Time;durP1;ratioP1;P1;durP2;ratioP2;P2;SDS_P1;SDS_P2;PMS_P1;PMS_P2;Temp;Humidity;BMP_temperature;BMP_pressure;BME280_temperature;BME280_humidity;BME280_pressure;Samples;Min_cycle;Max_cycle;Signal;HPM_P1;HPM_P2
2023/01/10 00:01:28;;;;;;;;;;;4.60;99.90;;;;;;5097380;28;20506;-73
2023/01/10 00:03:55;;;;;;;33.03;4.13;;;4.60;99.90;;;;;;5079353;28;20375;-73
2023/01/10 00:06:23;;;;;;;37.55;4.72;;;4.60;99.90;;;;;;5097095;28;20044;-73
2023/01/10 00:08:50;;;;;;;34.13;4.63;;;4.50;99.90;;;;;;5114875;28;20051;-73
2023/01/10 00:14:04;;;;;;;33.10;4.15;;;4.50;99.90;;;;;;5118809;28;20058;-73
2023/01/10 00:16:31;;;;;;;38.03;4.80;;;4.50;99.90;;;;;;5101126;28;20376;-73
2023/01/10 00:18:59;;;;;;;32.83;3.95;;;4.50;99.90;;;;;;5099561;28;20055;-73
2023/01/10 00:21:27;;;;;;;40.92;4.55;;;5.70;99.90;;;;;;5100853;28;20498;-73
2023/01/10 00:23:57;;;;;;;26.98;4.55;;;4.40;99.90;;;;;;5117327;28;20048;-73
2023/01/10 00:26:25;;;;;;;32.67;4.28;;;4.50;99.90;;;;;;5118222;28;20044;-73
2023/01/10 00:28:52;;;;;;;45.20;4.63;;;4.40;99.90;;;;;;5100589;28;20062;-73
2023/01/10 00:31:20;;;;;;;29.75;4.55;;;4.40;99.90;;;;;;5117145;28;20384;-73
2023/01/10 00:33:47;;;;;;;24.30;3.92;;;4.40;99.90;;;;;;5118377;28;20043;-73
2023/01/10 00:36:15;;;;;;;44.92;5.00;;;4.30;99.90;;;;;;5100543;28;20040;-73
2023/01/10 00:38:42;;;;;;;32.05;4.15;;;4.30;99.90;;;;;;5116914;28;20036;-73
2023/01/10 00:43:55;;;;;;;34.42;4.35;;;4.40;99.90;;;;;;5100747;28;20129;-73
2023/01/10 00:43:57;;;;;;;34.90;4.55;;;4.20;99.90;;;;;;5116737;28;20050;-73
2023/01/10 00:46:26;;;;;;;29.23;4.25;;;4.20;99.90;;;;;;5117858;28;20345;-73
2023/01/10 00:48:53;;;;;;;34.22;4.25;;;4.20;99.90;;;;;;5117878;28;20498;-73
2023/01/10 00:51:21;;;;;;;34.15;4.72;;;4.20;99.90;;;;;;5082069;28;20035;-73
2023/01/10 00:53:48;;;;;;;35.33;3.67;;;4.20;99.90;;;;;;5083060;28;20051;-73
2023/01/10 00:56:16;;;;;;;34.25;4.68;;;4.20;99.90;;;;;;5117776;28;20055;-73
2023/01/10 00:58:43;;;;;;;40.40;4.47;;;4.10;99.90;;;;;;5116654;28;20044;-73
2023/01/10 01:01:11;;;;;;;37.13;4.70;;;4.10;99.90;;;;;;5117985;28;20047;-73
2023/01/10 01:03:38;;;;;;;38.97;4.88;;;4.10;99.90;;;;;;5099652;28;20066;-73
2023/01/10 01:06:07;;;;;;;32.63;4.72;;;4.00;99.90;;;;;;5098512;28;20346;-73
2023/01/10 01:08:34;;;;;;;44.55;4.43;;;4.00;99.90;;;;;;5117906;28;20051;-73
2023/01/10 01:11:02;;;;;;;35.83;4.40;;;4.00;99.90;;;;;;5116227;28;20380;-73
2023/01/10 01:13:29;;;;;;;40.58;4.93;;;4.00;99.90;;;;;;5117514;28;20043;-73
2023/01/10 01:15:58;;;;;;;44.42;4.60;;;4.00;99.90;;;;;;5117535;28;20050;-73
2023/01/10 01:18:26;;;;;;;27.27;4.45;;;4.00;99.90;;;;;;5116028;28;20047;-73
2023/01/10 01:21:01;;;;;;;;;;;4.00;99.90;;;;;;5117675;28;20043;-73
2023/01/10 01:23:29;;;;;;;43.20;5.15;;;4.10;99.90;;;;;;5116201;28;19920;-73
2023/01/10 01:25:56;;;;;;;29.55;4.63;;;4.10;99.90;;;;;;5098168;28;20054;-73
2023/01/10 01:28:24;;;;;;;21.35;3.70;;;5.00;99.90;;;;;;5117263;28;20040;-73
2023/01/10 01:30:52;;;;;;;42.42;4.57;;;4.10;99.90;;;;;;5098210;28;20047;-73
2023/01/10 01:33:20;;;;;;;42.00;4.65;;;4.10;99.90;;;;;;5083021;28;20062;-73
2023/01/10 01:35:48;;;;;;;41.30;4.78;;;4.10;99.90;;;;;;5099313;28;20054;-73
2023/01/10 01:38:16;;;;;;;29.45;4.13;;;4.10;99.90;;;;;;5098181;28;20051;-73
2023/01/10 01:40:44;;;;;;;35.40;4.22;;;4.10;99.90;;;;;;5116841;28;20055;-73
2023/01/10 01:43:20;;;;;;;29.75;4.50;;;4.20;99.90;;;;;;5098822;28;20043;-73
2023/01/10 01:45:48;;;;;;;27.98;4.25;;;4.20;99.90;;;;;;5115798;28;20043;-73
2023/01/10 01:48:51;;;;;;;46.15;5.10;;;4.20;99.90;;;;;;5116706;28;20054;-73
2023/01/10 01:51:26;;;;;;;33.38;4.40;;;5.10;99.90;;;;;;4981059;28;20471;-73
2023/01/10 01:54:02;;;;;;;39.08;4.38;;;5.30;99.90;;;;;;5068431;28;20051;-73
2023/01/10 01:56:50;;;;;;;40.60;4.35;;;4.10;99.90;;;;;;5116544;28;20047;-73
2023/01/10 01:59:23;;;;;;;30.83;3.80;;;4.10;99.90;;;;;;5115486;28;20051;-73
2023/01/10 02:01:54;;;;;;;33.13;3.88;;;4.00;99.90;;;;;;5081727;28;20047;-73
2023/01/10 02:05:02;;;;;;;30.80;4.35;;;5.20;99.90;;;;;;5098413;28;20494;-73
2023/01/10 02:07:36;;;;;;;32.70;4.20;;;4.10;99.90;;;;;;5087547;28;20515;-73
2023/01/10 02:10:35;;;;;;;35.10;4.38;;;4.10;99.90;;;;;;5116407;28;20048;-73
2023/01/10 02:13:05;;;;;;;31.77;4.68;;;4.10;99.90;;;;;;5098798;28;20059;-73
2023/01/10 02:15:33;;;;;;;40.95;4.05;;;5.10;99.90;;;;;;5098799;28;20059;-73
2023/01/10 02:18:02;;;;;;;32.05;4.45;;;4.20;99.90;;;;;;5097755;28;20048;-73
2023/01/10 02:20:39;;;;;;;28.15;3.67;;;4.10;99.90;;;;;;5116328;28;20047;-73
2023/01/10 02:23:41;;;;;;;39.97;4.85;;;4.20;99.90;;;;;;5064908;28;20395;-73
2023/01/10 02:26:15;;;;;;;42.33;4.55;;;4.20;99.90;;;;;;5080384;28;20393;-72
2023/01/10 02:29:06;;;;;;;38.10;4.38;;;4.20;99.90;;;;;;5116091;28;20059;-73
2023/01/10 02:32:07;;;;;;;33.85;4.38;;;4.20;99.90;;;;;;5114812;28;20051;-73
2023/01/10 02:34:52;;;;;;;32.67;3.72;;;4.30;99.90;;;;;;5098223;28;20479;-73
2023/01/10 02:37:45;;;;;;;30.25;4.22;;;4.30;99.90;;;;;;5096986;28;20044;-73
2023/01/10 02:40:23;;;;;;;30.05;4.05;;;4.30;99.90;;;;;;5098500;28;20048;-73
2023/01/10 02:43:11;;;;;;;35.85;4.07;;;4.30;99.90;;;;;;5115899;28;20040;-73
2023/01/10 02:45:58;;;;;;;39.92;4.82;;;4.30;99.90;;;;;;5096790;28;20059;-73
2023/01/10 02:48:25;;;;;;;44.40;4.93;;;4.20;99.90;;;;;;5115563;28;20360;-73
2023/01/10 02:50:57;;;;;;;30.80;4.07;;;4.20;99.90;;;;;;5114874;28;20051;-73
2023/01/10 02:53:36;;;;;;;27.27;3.90;;;4.20;99.90;;;;;;5098150;28;20047;-73
2023/01/10 02:56:29;;;;;;;34.72;3.92;;;4.30;99.90;;;;;;5097496;28;20051;-73
2023/01/10 02:59:18;;;;;;;31.70;3.72;;;4.30;99.90;;;;;;5114201;28;20376;-73
2023/01/10 03:01:45;;;;;;;36.60;4.30;;;4.30;99.90;;;;;;5097844;28;20050;-73
2023/01/10 03:04:37;;;;;;;32.28;4.57;;;4.30;99.90;;;;;;5114299;28;20040;-73
2023/01/10 03:07:20;;;;;;;26.52;3.67;;;4.40;99.90;;;;;;5115494;28;20070;-73
2023/01/10 03:10:22;;;;;;;36.63;4.32;;;4.40;99.90;;;;;;5115708;28;20039;-73
2023/01/10 03:13:06;;;;;;;38.35;4.05;;;4.40;99.90;;;;;;5113778;28;20143;-73
2023/01/10 03:15:37;;;;;;;33.47;4.45;;;4.50;99.90;;;;;;5115862;28;20051;-73
2023/01/10 03:18:15;;;;;;;31.02;4.03;;;4.50;99.90;;;;;;5114295;28;20468;-73
2023/01/10 03:20:46;;;;;;;36.22;4.35;;;4.40;99.90;;;;;;5097425;28;20471;-73
2023/01/10 03:23:15;;;;;;;33.00;4.50;;;4.50;99.90;;;;;;5114979;28;20050;-73
2023/01/10 03:25:45;;;;;;;30.25;4.22;;;4.50;99.90;;;;;;5114138;28;20448;-73
2023/01/10 03:28:22;;;;;;;38.60;4.30;;;4.60;99.90;;;;;;5097807;28;20052;-73
2023/01/10 03:30:59;;;;;;;34.92;4.18;;;4.40;99.90;;;;;;5113935;28;20047;-73
2023/01/10 03:33:30;;;;;;;36.35;4.13;;;4.70;99.90;;;;;;5115176;28;20051;-73
2023/01/10 03:36:06;;;;;;;32.65;4.05;;;4.40;99.90;;;;;;5114836;28;20058;-73
2023/01/10 03:38:54;;;;;;;34.85;3.70;;;4.40;99.90;;;;;;5096339;28;20040;-73
2023/01/10 03:41:56;;;;;;;31.60;3.90;;;4.40;99.90;;;;;;5115289;28;20044;-73
2023/01/10 03:44:42;;;;;;;35.83;4.20;;;4.30;99.90;;;;;;5114051;28;20070;-73
2023/01/10 03:47:31;;;;;;;34.55;4.40;;;4.30;99.90;;;;;;5098836;28;20046;-74
2023/01/10 03:50:05;;;;;;;27.63;3.90;;;4.30;99.90;;;;;;5119076;28;20035;-73
2023/01/10 03:52:35;;;;;;;35.20;4.40;;;4.50;99.90;;;;;;5099968;28;20051;-74
2023/01/10 03:55:04;;;;;;;17.90;3.35;;;4.20;99.90;;;;;;5101190;28;20046;-73
2023/01/10 03:57:32;;;;;;;32.15;3.85;;;4.20;99.90;;;;;;5118007;28;20054;-73
2023/01/10 03:59:59;;;;;;;42.47;4.47;;;4.20;99.90;;;;;;5101302;28;20048;-73
2023/01/10 04:02:29;;;;;;;37.00;4.25;;;4.30;99.90;;;;;;5119156;28;20054;-73
2023/01/10 04:04:58;;;;;;;23.98;3.13;;;4.30;99.90;;;;;;5117783;28;20047;-73
2023/01/10 04:07:25;;;;;;;33.85;4.35;;;4.30;99.90;;;;;;5101116;28;20063;-74
2023/01/10 04:09:53;;;;;;;31.23;4.30;;;4.90;99.90;;;;;;5100929;28;20047;-73
2023/01/10 04:12:21;;;;;;;39.63;4.50;;;4.40;99.90;;;;;;5099610;28;20062;-73
2023/01/10 04:14:48;;;;;;;41.83;4.18;;;4.50;99.90;;;;;;5118726;28;20387;-73
2023/01/10 04:17:16;;;;;;;40.83;3.97;;;4.60;99.90;;;;;;5117546;28;20054;-73
2023/01/10 04:19:44;;;;;;;29.27;3.50;;;4.60;99.90;;;;;;5118343;28;20072;-73
2023/01/10 04:22:12;;;;;;;35.85;4.20;;;4.70;99.90;;;;;;5101006;28;20063;-74
2023/01/10 04:24:39;;;;;;;29.65;4.38;;;4.70;99.90;;;;;;5117576;28;20044;-74
2023/01/10 04:27:07;;;;;;;28.67;4.30;;;4.70;99.90;;;;;;5100670;28;20040;-73
2023/01/10 04:29:34;;;;;;;26.23;3.75;;;5.00;99.90;;;;;;5118460;28;20047;-73
2023/01/10 04:32:02;;;;;;;28.60;3.40;;;4.70;99.90;;;;;;5099431;28;20052;-73
2023/01/10 04:34:29;;;;;;;29.40;4.05;;;4.60;99.90;;;;;;5100871;28;20048;-73
2023/01/10 04:36:57;;;;;;;33.53;4.10;;;4.70;99.90;;;;;;5118576;28;20353;-73
2023/01/10 04:39:24;;;;;;;33.10;4.35;;;4.60;99.90;;;;;;5116989;28;20048;-74
2023/01/10 04:41:52;;;;;;;33.40;3.80;;;4.60;99.90;;;;;;5118284;28;20372;-73
2023/01/10 04:44:19;;;;;;;35.67;3.50;;;4.60;99.90;;;;;;5116906;28;20050;-73
2023/01/10 04:46:47;;;;;;;40.80;4.35;;;4.70;99.90;;;;;;5117884;28;20428;-73
2023/01/10 04:49:14;;;;;;;25.10;3.65;;;5.20;99.90;;;;;;5100723;28;20043;-73
2023/01/10 04:51:41;;;;;;;39.53;3.97;;;4.70;99.90;;;;;;5116776;28;20471;-74
2023/01/10 04:54:09;;;;;;;32.80;4.32;;;4.80;99.90;;;;;;5100157;28;20043;-73
2023/01/10 04:56:37;;;;;;;31.17;3.90;;;5.60;99.90;;;;;;5117940;28;20476;-74
2023/01/10 04:59:05;;;;;;;27.27;3.92;;;5.00;99.90;;;;;;5116416;28;20043;-73
2023/01/10 05:01:35;;;;;;;28.58;4.10;;;5.00;99.90;;;;;;5117639;28;20479;-73
2023/01/10 05:04:02;;;;;;;40.95;4.75;;;5.00;99.90;;;;;;5099308;28;20043;-73
2023/01/10 05:06:30;;;;;;;31.20;3.40;;;5.00;99.90;;;;;;5117778;28;20410;-73
2023/01/10 05:08:58;;;;;;;43.08;4.32;;;5.00;99.90;;;;;;5117771;28;20036;-73
2023/01/10 05:11:25;;;;;;;42.90;4.60;;;5.60;99.90;;;;;;5116515;28;20048;-74
2023/01/10 05:13:53;;;;;;;34.67;3.92;;;5.90;99.90;;;;;;5117321;28;20379;-73
2023/01/10 05:16:20;;;;;;;39.47;4.40;;;5.10;99.90;;;;;;5117543;28;20046;-73
2023/01/10 05:18:48;;;;;;;34.42;4.05;;;5.00;99.90;;;;;;5081974;28;20059;-73
2023/01/10 05:21:15;;;;;;;38.75;4.38;;;5.00;99.90;;;;;;5117406;28;20051;-73
2023/01/10 05:23:43;;;;;;;37.65;4.00;;;5.00;99.90;;;;;;5117401;28;20046;-73
2023/01/10 05:26:16;;;;;;;30.85;4.03;;;5.00;99.90;;;;;;5082324;28;20063;-73
2023/01/10 05:28:44;;;;;;;44.97;4.93;;;4.90;99.90;;;;;;5117529;28;20044;-73
2023/01/10 05:31:15;;;;;;;41.58;4.53;;;5.00;99.90;;;;;;5115951;28;20121;-73
2023/01/10 05:33:47;;;;;;;43.63;4.60;;;5.00;99.90;;;;;;5117258;28;20044;-74
2023/01/10 05:36:16;;;;;;;35.75;4.40;;;5.00;99.90;;;;;;5117199;28;20475;-73
2023/01/10 05:38:43;;;;;;;33.67;3.97;;;5.10;99.90;;;;;;5081391;28;20055;-73
2023/01/10 05:41:11;;;;;;;37.13;4.25;;;5.00;99.90;;;;;;5116883;28;20042;-73
2023/01/10 05:43:38;;;;;;;33.78;4.10;;;5.10;99.90;;;;;;5116909;28;20066;-73
2023/01/10 05:46:06;;;;;;;32.08;4.20;;;5.20;99.90;;;;;;5115614;28;20044;-73
2023/01/10 05:48:33;;;;;;;36.28;4.13;;;5.60;99.90;;;;;;5116748;28;20043;-73
2023/01/10 05:51:02;;;;;;;42.50;4.70;;;5.30;99.90;;;;;;5115716;28;20375;-73
2023/01/10 05:53:30;;;;;;;40.30;4.43;;;5.30;99.90;;;;;;5116547;28;20084;-73
2023/01/10 05:56:00;;;;;;;38.97;4.05;;;5.70;99.90;;;;;;5116769;28;20054;-73
2023/01/10 05:58:28;;;;;;;37.08;4.18;;;5.40;99.90;;;;;;5115330;28;20499;-74
2023/01/10 06:00:56;;;;;;;30.45;4.22;;;5.40;99.90;;;;;;5081984;28;20058;-73
2023/01/10 06:03:25;;;;;;;47.92;4.95;;;5.40;99.90;;;;;;5116332;28;20044;-73
2023/01/10 06:05:54;;;;;;;35.58;4.13;;;5.50;99.90;;;;;;5080413;28;20499;-73
2023/01/10 06:08:22;;;;;;;38.85;4.43;;;5.60;99.90;;;;;;5116729;28;20067;-73
2023/01/10 06:10:50;;;;;;;38.22;4.30;;;5.60;99.90;;;;;;5114860;28;20039;-73
2023/01/10 06:13:18;;;;;;;30.58;4.32;;;5.70;99.90;;;;;;5116298;28;20039;-74
2023/01/10 06:15:45;;;;;;;34.55;4.82;;;5.70;99.90;;;;;;5098381;28;20040;-73
2023/01/10 06:18:13;;;;;;;30.75;4.68;;;5.80;99.90;;;;;;5097294;28;20043;-73
2023/01/10 06:20:44;;;;;;;30.48;3.85;;;6.80;99.90;;;;;;5116190;28;20368;-73
2023/01/10 06:23:11;;;;;;;39.85;4.63;;;5.90;99.90;;;;;;5098750;28;20050;-73
2023/01/10 06:25:40;;;;;;;35.65;4.47;;;6.20;99.90;;;;;;5097114;28;20058;-73
2023/01/10 06:28:09;;;;;;;36.95;4.13;;;7.80;99.90;;;;;;5098337;28;20055;-73
2023/01/10 06:30:37;;;;;;;39.40;4.13;;;6.00;99.90;;;;;;5097196;28;20380;-74
2023/01/10 06:33:05;;;;;;;33.38;4.53;;;6.00;99.90;;;;;;5115853;28;20047;-73
2023/01/10 06:35:34;;;;;;;43.58;4.80;;;6.10;99.90;;;;;;5097996;28;20047;-73
2023/01/10 06:38:01;;;;;;;;;;;6.20;99.90;;;;;;5097907;28;20048;-74
2023/01/10 06:40:29;;;;;;;37.33;4.35;;;6.10;99.90;;;;;;5115801;28;19927;-73
2023/01/10 06:42:57;;;;;;;34.25;4.25;;;6.20;99.90;;;;;;5098144;28;20059;-73
2023/01/10 06:45:25;;;;;;;43.25;4.75;;;6.20;99.90;;;;;;5114497;28;20460;-73
2023/01/10 06:47:53;;;;;;;43.75;4.85;;;6.20;99.90;;;;;;5115689;28;20048;-73
2023/01/10 06:50:20;;;;;;;40.50;5.15;;;6.30;99.90;;;;;;5080935;28;20043;-73
2023/01/10 06:52:59;;;;;;;46.70;4.82;;;6.30;99.90;;;;;;5114558;28;20047;-73
2023/01/10 06:55:27;;;;;;;31.48;4.07;;;6.30;99.90;;;;;;5115478;28;20044;-73
2023/01/10 06:57:55;;;;;;;;;;;6.40;99.90;;;;;;5097729;28;20043;-73
2023/01/10 07:00:23;;;;;;;41.40;4.50;;;6.40;99.90;;;;;;5115289;28;19919;-73
2023/01/10 07:02:51;;;;;;;43.65;4.78;;;6.40;99.90;;;;;;5097788;28;20035;-73
2023/01/10 07:05:18;;;;;;;42.05;4.88;;;6.40;99.90;;;;;;5114343;28;20040;-73
2023/01/10 07:07:46;;;;;;;44.47;4.63;;;6.40;99.90;;;;;;5097792;28;20048;-73
2023/01/10 07:10:14;;;;;;;41.08;4.60;;;6.40;99.90;;;;;;5115381;28;20372;-74
2023/01/10 07:12:41;;;;;;;45.47;4.28;;;6.40;99.90;;;;;;5114069;28;20055;-73
2023/01/10 07:15:09;;;;;;;37.45;4.00;;;6.40;99.90;;;;;;5097975;28;20059;-74
2023/01/10 07:17:37;;;;;;;40.47;4.53;;;6.40;99.90;;;;;;5080078;28;20066;-73
2023/01/10 07:20:05;;;;;;;42.53;4.35;;;6.50;99.90;;;;;;5097600;28;20036;-73
2023/01/10 07:22:32;;;;;;;60.15;5.38;;;6.50;99.90;;;;;;5114135;28;20044;-73
2023/01/10 07:24:59;;;;;;;47.55;5.55;;;6.50;99.90;;;;;;5096352;28;20125;-73
2023/01/10 07:27:30;;;;;;;46.28;4.85;;;6.50;99.90;;;;;;5115334;28;20040;-73
2023/01/10 07:29:58;;;;;;;41.47;4.47;;;6.50;99.90;;;;;;5097273;28;20044;-74
2023/01/10 07:32:26;;;;;;;54.55;5.22;;;6.50;99.90;;;;;;5095864;28;20479;-73
2023/01/10 07:34:54;;;;;;;43.50;4.82;;;6.60;99.90;;;;;;5115068;28;20048;-73
2023/01/10 07:37:21;;;;;;;48.97;4.90;;;6.70;99.90;;;;;;5114153;28;20383;-74
2023/01/10 07:39:49;;;;;;;48.13;5.55;;;6.90;99.90;;;;;;5097143;28;20043;-73
2023/01/10 07:42:16;;;;;;;53.92;4.85;;;6.60;99.90;;;;;;5115046;28;20490;-73
2023/01/10 07:44:44;;;;;;;46.35;5.43;;;6.60;99.90;;;;;;5113801;28;20035;-73
2023/01/10 07:47:11;;;;;;;50.42;4.85;;;6.60;99.90;;;;;;5115049;28;20044;-73
2023/01/10 07:49:39;;;;;;;45.33;4.38;;;6.70;99.90;;;;;;5115041;28;20036;-74
2023/01/10 07:52:08;;;;;;;48.00;5.10;;;6.80;99.90;;;;;;5113756;28;20044;-74
2023/01/10 07:54:35;;;;;;;47.15;5.40;;;6.70;99.90;;;;;;5097556;28;20464;-74
2023/01/10 07:57:03;;;;;;;52.92;5.95;;;6.80;99.90;;;;;;5080805;28;20051;-74
2023/01/10 07:59:30;;;;;;;56.10;5.90;;;6.80;99.90;;;;;;5096667;28;20047;-74
2023/01/10 08:01:58;;;;;;;48.25;5.43;;;6.80;99.90;;;;;;5114923;28;20036;-73
2023/01/10 08:04:25;;;;;;;50.53;5.07;;;7.70;99.90;;;;;;5095784;28;20043;-73
2023/01/10 08:06:54;;;;;;;48.97;5.95;;;6.90;99.90;;;;;;5114648;28;20048;-74
2023/01/10 08:09:21;;;;;;;44.80;5.20;;;7.00;99.90;;;;;;5114849;28;20380;-74
2023/01/10 08:11:49;;;;;;;48.42;4.85;;;7.00;99.90;;;;;;5113543;28;20036;-73
2023/01/10 08:14:16;;;;;;;48.85;5.15;;;7.10;99.90;;;;;;5115180;28;20040;-73
2023/01/10 08:16:44;;;;;;;36.00;4.25;;;7.10;99.90;;;;;;5114960;28;20047;-73
2023/01/10 08:19:15;;;;;;;38.13;4.50;;;7.20;99.90;;;;;;5113411;28;20042;-74
2023/01/10 08:21:43;;;;;;;41.83;5.38;;;7.20;99.90;;;;;;5096954;28;20046;-76
2023/01/10 08:24:10;;;;;;;36.90;4.38;;;7.50;99.90;;;;;;5113279;28;20059;-76
2023/01/10 08:26:38;;;;;;;29.90;4.28;;;7.20;99.90;;;;;;5114794;28;20043;-75
2023/01/10 08:29:05;;;;;;;38.08;4.50;;;7.20;99.90;;;;;;5096047;28;20043;-75
2023/01/10 08:31:33;;;;;;;28.67;4.05;;;8.50;99.90;;;;;;5075220;28;20047;-75
2023/01/10 08:34:00;;;;;;;33.28;4.28;;;7.30;99.90;;;;;;5096750;28;20416;-75
2023/01/10 08:36:28;;;;;;;43.22;4.13;;;7.30;99.90;;;;;;5080066;28;20048;-75
2023/01/10 08:38:56;;;;;;;;;;;7.30;99.90;;;;;;5097178;28;20048;-76
2023/01/10 08:41:23;;;;;;;35.20;3.70;;;7.10;99.90;;;;;;5079969;28;20375;-75
2023/01/10 08:43:51;;;;;;;22.02;3.40;;;7.30;99.90;;;;;;5096565;28;20044;-76
2023/01/10 08:46:19;;;;;;;35.42;3.75;;;7.30;99.90;;;;;;5079759;28;20047;-75
2023/01/10 08:48:49;;;;;;;32.50;3.60;;;7.30;99.90;;;;;;5097087;28;20048;-75
2023/01/10 08:51:16;;;;;;;32.25;3.30;;;7.60;99.90;;;;;;5096371;28;20047;-75
2023/01/10 08:53:44;;;;;;;32.13;3.47;;;7.40;99.90;;;;;;5097288;28;20044;-74
2023/01/10 08:56:11;;;;;;;20.40;3.20;;;7.50;99.90;;;;;;5079627;28;20468;-74
2023/01/10 08:58:39;;;;;;;23.05;2.65;;;7.90;99.90;;;;;;5096172;28;20048;-74
2023/01/10 09:01:08;;;;;;;22.10;3.10;;;7.40;99.90;;;;;;5097049;28;20357;-75
2023/01/10 09:03:35;;;;;;;23.08;3.20;;;7.70;99.90;;;;;;5096928;28;20044;-74
2023/01/10 09:06:03;;;;;;;29.33;3.40;;;7.40;99.90;;;;;;5078091;28;20385;-75
2023/01/10 09:08:30;;;;;;;21.83;2.80;;;7.40;99.90;;;;;;5096995;28;20047;-74
2023/01/10 09:10:59;;;;;;;20.60;3.08;;;7.60;99.90;;;;;;5095810;28;20361;-75
2023/01/10 09:13:28;;;;;;;25.17;2.60;;;7.50;99.90;;;;;;5079084;28;20048;-75
2023/01/10 09:15:55;;;;;;;23.42;2.55;;;7.50;99.90;;;;;;5096767;28;20059;-75
2023/01/10 09:18:24;;;;;;;23.67;2.30;;;7.50;99.90;;;;;;5095702;28;20364;-75
2023/01/10 09:20:52;;;;;;;16.70;1.92;;;7.50;99.90;;;;;;5096559;28;20043;-76
2023/01/10 09:23:22;;;;;;;23.48;2.53;;;8.80;99.90;;;;;;5062436;28;20040;-76
2023/01/10 09:25:52;;;;;;;15.35;2.13;;;7.50;99.90;;;;;;5099437;28;20055;-75
2023/01/10 09:28:23;;;;;;;17.35;1.90;;;7.60;99.90;;;;;;5093661;28;20035;-76
2023/01/10 09:30:50;;;;;;;15.30;1.60;;;7.60;99.90;;;;;;5116922;28;20372;-76
2023/01/10 09:33:18;;;;;;;13.18;1.50;;;7.60;99.90;;;;;;5117721;28;20070;-76
2023/01/10 09:35:46;;;;;;;;;;;7.60;99.90;;;;;;5115995;28;20050;-73
2023/01/10 09:38:17;;;;;;;10.50;1.30;;;7.60;99.90;;;;;;5102744;28;20240;-75
2023/01/10 09:41:23;;;;;;;14.18;1.40;;;8.10;99.90;;;;;;5109311;28;20062;-73
2023/01/10 09:44:02;;;;;;;4.78;0.95;;;7.60;99.90;;;;;;5115142;28;20464;-75
2023/01/10 09:46:57;;;;;;;8.38;0.90;;;7.60;99.90;;;;;;5098228;28;20459;-75
2023/01/10 09:49:29;;;;;;;6.25;0.63;;;7.70;99.90;;;;;;5099041;28;20036;-76
2023/01/10 09:51:57;;;;;;;4.90;0.50;;;7.70;99.90;;;;;;5116308;28;20043;-75
2023/01/10 09:54:40;;;;;;;2.60;0.35;;;7.70;99.90;;;;;;5099586;28;20051;-75
2023/01/10 09:57:16;;;;;;;1.60;0.20;;;7.70;99.90;;;;;;5115752;28;20048;-75
2023/01/10 09:59:47;;;;;;;3.35;0.57;;;7.80;99.90;;;;;;5116518;28;20048;-76
2023/01/10 10:02:35;;;;;;;2.38;0.52;;;7.80;99.90;;;;;;5117125;28;20055;-75
2023/01/10 10:05:07;;;;;;;1.23;0.45;;;7.80;99.90;;;;;;5097742;28;20040;-76
2023/01/10 10:07:35;;;;;;;3.10;0.40;;;7.80;99.90;;;;;;5116293;28;20055;-76
2023/01/10 10:10:05;;;;;;;2.45;0.30;;;7.80;99.90;;;;;;5116417;28;20036;-75
2023/01/10 10:12:47;;;;;;;2.60;0.43;;;7.80;99.90;;;;;;5097499;28;20051;-76
2023/01/10 10:15:31;;;;;;;2.10;0.45;;;8.50;99.90;;;;;;5116216;28;20032;-75
2023/01/10 10:17:59;;;;;;;4.18;0.60;;;7.80;99.90;;;;;;5115106;28;20047;-76
2023/01/10 10:21:00;;;;;;;4.63;0.68;;;7.80;99.90;;;;;;5116019;28;20361;-75
2023/01/10 10:23:43;;;;;;;3.25;0.30;;;7.90;99.90;;;;;;5116183;28;20044;-76
2023/01/10 10:26:32;;;;;;;2.55;0.55;;;7.90;99.90;;;;;;5115205;28;20039;-76
2023/01/10 10:29:05;;;;;;;3.97;0.45;;;7.90;99.90;;;;;;5115891;28;20044;-75
2023/01/10 10:31:47;;;;;;;2.65;0.45;;;9.10;99.90;;;;;;5114178;28;20467;-76
2023/01/10 10:34:36;;;;;;;2.15;0.80;;;8.00;99.90;;;;;;5115259;28;20353;-76
2023/01/10 10:37:58;;;;;;;1.55;0.60;;;8.00;99.90;;;;;;5080552;28;20066;-76
2023/01/10 10:40:31;;;;;;;2.70;0.40;;;8.10;99.90;;;;;;5012703;28;20062;-76
2023/01/10 10:43:30;;;;;;;1.63;0.55;;;8.10;99.90;;;;;;5013418;28;20050;-76
2023/01/10 10:46:04;;;;;;;1.73;0.40;;;8.10;99.90;;;;;;5083959;28;20052;-76
2023/01/10 10:48:49;;;;;;;2.95;0.65;;;8.20;99.90;;;;;;5116106;28;20058;-76
2023/01/10 10:51:29;;;;;;;2.88;0.60;;;8.20;99.90;;;;;;5114562;28;20376;-76
2023/01/10 10:53:57;;;;;;;0.55;0.40;;;8.20;99.90;;;;;;5098395;28;20050;-75
2023/01/10 10:56:26;;;;;;;3.80;0.70;;;8.20;99.90;;;;;;5080941;28;20052;-75
2023/01/10 10:58:56;;;;;;;5.38;0.80;;;8.30;99.90;;;;;;5114452;28;20487;-76
2023/01/10 11:01:24;;;;;;;4.85;1.00;;;8.20;99.90;;;;;;5115659;28;20039;-75
2023/01/10 11:04:12;;;;;;;2.10;0.60;;;8.30;99.90;;;;;;5114331;28;20048;-76
2023/01/10 11:06:47;;;;;;;2.78;0.50;;;8.40;99.90;;;;;;5114627;28;20459;-76
2023/01/10 11:12:15;;;;;;;3.03;0.70;;;8.40;99.90;;;;;;5075872;28;20471;-75
2023/01/10 11:14:50;;;;;;;5.78;0.60;;;8.50;99.90;;;;;;5097269;28;20063;-76
2023/01/10 11:17:24;;;;;;;3.38;0.70;;;8.50;99.90;;;;;;5113990;28;20054;-76
2023/01/10 11:19:59;;;;;;;7.00;0.98;;;8.90;99.90;;;;;;5096993;28;20058;-75
2023/01/10 11:22:29;;;;;;;2.85;0.70;;;9.60;99.90;;;;;;5097193;28;20051;-76
2023/01/10 11:25:00;;;;;;;3.08;0.60;;;8.60;99.90;;;;;;5096273;28;20448;-76
2023/01/10 11:27:44;;;;;;;6.07;0.82;;;10.00;99.90;;;;;;5081263;28;20376;-76
2023/01/10 11:30:22;;;;;;;2.42;0.65;;;10.70;99.90;;;;;;5115302;28;20048;-76
2023/01/10 11:32:54;;;;;;;;;;;8.70;99.90;;;;;;5096544;28;20051;-75
2023/01/10 11:35:27;;;;;;;3.88;0.68;;;8.70;99.90;;;;;;5114671;28;19926;-76
2023/01/10 11:38:00;;;;;;;5.15;1.10;;;8.80;99.90;;;;;;5095987;28;20056;-75
2023/01/10 11:40:30;;;;;;;3.13;0.68;;;8.80;99.90;;;;;;5115157;28;20051;-74
2023/01/10 11:42:59;;;;;;;3.22;1.20;;;8.90;99.90;;;;;;5096988;28;20052;-75
2023/01/10 11:45:32;;;;;;;5.00;1.00;;;8.80;99.90;;;;;;5113479;28;20036;-76
2023/01/10 11:48:16;;;;;;;3.58;0.90;;;8.90;99.90;;;;;;5108679;28;20047;-73
2023/01/10 11:50:50;;;;;;;7.78;1.02;;;8.90;99.90;;;;;;5109639;28;20207;-75
2023/01/10 11:53:42;;;;;;;4.18;0.80;;;9.00;99.90;;;;;;5097168;28;20062;-75
2023/01/10 11:56:13;;;;;;;6.10;1.27;;;9.00;99.90;;;;;;5110968;28;20046;-75
2023/01/10 11:58:42;;;;;;;5.85;1.25;;;9.00;99.90;;;;;;5095912;28;20055;-73
2023/01/10 12:01:33;;;;;;;1.88;0.60;;;9.10;99.90;;;;;;5097156;28;20047;-74
2023/01/10 12:04:01;;;;;;;2.65;0.60;;;9.10;99.90;;;;;;5095937;28;20044;-74
2023/01/10 12:06:29;;;;;;;3.28;0.70;;;9.20;99.90;;;;;;5097395;28;20051;-75
2023/01/10 12:08:57;;;;;;;4.45;0.60;;;9.20;99.90;;;;;;5117969;28;20044;-76
2023/01/10 12:11:27;;;;;;;4.07;0.85;;;9.40;99.90;;;;;;5117486;28;20059;-75
2023/01/10 12:14:00;;;;;;;3.95;0.75;;;9.30;99.90;;;;;;5119024;28;20059;-73
2023/01/10 12:16:30;;;;;;;3.60;0.57;;;9.40;99.90;;;;;;5118643;28;20058;-73
2023/01/10 12:19:06;;;;;;;1.45;0.50;;;9.40;99.90;;;;;;5099504;28;20108;-74
2023/01/10 12:21:38;;;;;;;5.35;0.60;;;9.50;99.90;;;;;;5118892;28;20047;-76
2023/01/10 12:24:23;;;;;;;1.13;0.45;;;9.50;99.90;;;;;;5082788;28;20639;-75
2023/01/10 12:26:52;;;;;;;4.00;0.60;;;10.50;99.90;;;;;;5100886;28;20054;-75
2023/01/10 12:29:25;;;;;;;2.08;0.40;;;11.10;99.90;;;;;;5118443;28;20035;-74
2023/01/10 12:31:55;;;;;;;3.45;0.52;;;9.70;99.90;;;;;;5117468;28;20052;-73
2023/01/10 12:34:40;;;;;;;3.05;0.70;;;9.80;99.90;;;;;;5118582;28;20039;-75
2023/01/10 12:37:31;;;;;;;8.00;1.20;;;10.50;99.90;;;;;;5116560;28;20058;-73
2023/01/10 12:40:04;;;;;;;2.83;0.77;;;9.90;99.90;;;;;;5065245;28;20055;-72
2023/01/10 12:45:58;;;;;;;9.60;1.52;;;10.10;99.90;;;;;;5116662;28;20048;-76
2023/01/10 12:48:49;;;;;;;10.05;1.80;;;10.20;99.90;;;;;;5117714;28;20054;-74
2023/01/10 12:51:23;;;;;;;11.32;2.00;;;10.30;99.90;;;;;;5116819;28;20055;-76
2023/01/10 12:54:05;;;;;;;6.45;1.60;;;10.40;99.90;;;;;;5099997;28;20058;-77
2023/01/10 12:56:33;;;;;;;8.77;1.45;;;10.40;99.90;;;;;;5117420;28;20047;-74
2023/01/10 12:59:06;;;;;;;13.25;2.25;;;10.50;99.90;;;;;;5082125;28;20035;-75
2023/01/10 13:01:39;;;;;;;21.83;2.80;;;10.60;99.90;;;;;;5099792;28;20056;-75
2023/01/10 13:04:14;;;;;;;35.90;3.72;;;10.60;99.90;;;;;;5098657;28;20040;-78
2023/01/10 13:06:43;;;;;;;30.30;4.03;;;10.60;99.90;;;;;;5117099;28;20076;-76
2023/01/10 13:09:24;;;;;;;31.67;4.57;;;10.80;99.90;;;;;;5117126;28;20050;-75
2023/01/10 13:12:06;;;;;;;29.40;3.92;;;10.90;99.90;;;;;;5116169;28;20058;-78
2023/01/10 13:14:57;;;;;;;35.03;4.55;;;11.50;99.90;;;;;;5099667;28;20472;-76
2023/01/10 13:17:30;;;;;;;31.60;4.38;;;11.10;99.90;;;;;;5103510;28;20968;-78
2023/01/10 13:20:22;;;;;;;32.30;3.80;;;11.20;99.90;;;;;;5098139;28;20054;-76
2023/01/10 13:22:55;;;;;;;33.33;4.40;;;11.20;99.90;;;;;;5116971;28;20069;-75
2023/01/10 13:25:25;;;;;;;33.10;4.47;;;11.30;99.90;;;;;;5115650;28;20468;-74
2023/01/10 13:28:28;;;;;;;39.30;5.00;;;11.30;99.90;;;;;;5116993;28;20337;-75